Time;durP1;ratioP1;P1;durP2;ratioP2;P2;SDS_P1;SDS_P2;PMS_P1;PMS_P2;Temp;Humidity;BMP_temperature;BMP_pressure;BME280_temperature;BME280_humidity;BME280_pressure;Samples;Min_cycle;Max_cycle;Signal;HPM_P1;HPM_P2
2022/04/04 00:01:12;;;;;;;5.33;4.93;;;;;;;5.51;nan;95278.63;4982339;28;20917;-73
2022/04/04 00:03:38;;;;;;;5.05;4.60;;;;;;;5.32;nan;95281.31;4981018;28;20298;-74
2022/04/04 00:06:05;;;;;;;8.13;5.50;;;;;;;5.32;nan;95286.38;4982067;28;20212;-73
2022/04/04 00:08:33;;;;;;;5.03;4.70;;;;;;;5.21;nan;95283.09;4985392;28;20208;-73
2022/04/04 00:11:00;;;;;;;5.18;4.78;;;;;;;5.28;nan;95283.88;4989069;28;20231;-73
2022/04/04 00:13:27;;;;;;;5.35;4.38;;;;;;;5.29;nan;95275.47;4969640;28;20636;-73
2022/04/04 00:15:55;;;;;;;4.90;4.60;;;;;;;5.13;nan;95284.88;4968863;28;20717;-73
2022/04/04 00:18:23;;;;;;;4.70;4.40;;;;;;;4.97;nan;95260.66;4968271;28;20210;-73
2022/04/04 00:20:50;;;;;;;6.10;5.05;;;;;;;5.16;nan;95284.84;4967119;28;20773;-73
2022/04/04 00:23:17;;;;;;;5.18;4.72;;;;;;;5.17;nan;95285.69;4962347;28;20630;-72
2022/04/04 00:25:46;;;;;;;5.07;4.57;;;;;;;5.35;nan;95286.34;4965712;28;20205;-75
2022/04/04 00:28:13;;;;;;;4.43;4.13;;;;;;;5.24;nan;95274.69;4965421;28;20220;-73
2022/04/04 00:30:41;;;;;;;4.75;4.35;;;;;;;5.15;nan;95258.00;4964609;28;20229;-73
2022/04/04 00:33:09;;;;;;;4.27;4.00;;;;;;;5.14;nan;95286.56;4965241;28;20197;-73
2022/04/04 00:35:36;;;;;;;4.53;4.23;;;;;;;5.27;nan;95283.06;4965890;28;20237;-73
2022/04/04 00:38:05;;;;;;;3.85;3.65;;;;;;;5.17;nan;95284.00;4963199;28;20208;-73
2022/04/04 00:40:31;;;;;;;3.92;3.63;;;;;;;4.95;nan;95287.56;4965277;28;20661;-72
2022/04/04 00:42:58;;;;;;;4.50;4.20;;;;;;;5.03;nan;95293.34;4964177;28;20229;-75
2022/04/04 00:45:25;;;;;;;4.10;3.47;;;;;;;5.20;nan;95289.00;4961474;28;20201;-73
2022/04/04 00:47:52;;;;;;;4.40;4.10;;;;;;;4.99;nan;95287.50;4963741;28;20236;-72
2022/04/04 00:50:22;;;;;;;4.00;3.70;;;;;;;5.10;nan;95288.25;4962033;28;20193;-73
2022/04/04 00:52:49;;;;;;;4.28;3.90;;;;;;;5.15;nan;95285.69;4967288;28;20217;-72
2022/04/04 00:55:16;;;;;;;4.32;4.03;;;;;;;4.88;nan;95294.31;4965566;28;20289;-73
2022/04/04 00:57:43;;;;;;;6.90;3.90;;;;;;;4.86;nan;95297.69;4964801;28;20211;-73
2022/04/04 01:00:12;;;;;;;4.47;4.18;;;;;;;5.09;nan;95288.28;4965371;28;20206;-73
2022/04/04 01:02:40;;;;;;;4.43;4.13;;;;;;;4.87;nan;95291.81;4964967;28;20204;-71
2022/04/04 01:05:09;;;;;;;4.00;3.80;;;;;;;5.09;nan;95295.81;4966215;28;20200;-73
2022/04/04 01:07:38;;;;;;;4.90;4.25;;;;;;;4.87;nan;95271.69;4961765;28;20623;-72
2022/04/04 01:10:07;;;;;;;5.95;4.28;;;;;;;5.00;nan;95289.16;4967270;28;20205;-72
2022/04/04 01:12:34;;;;;;;4.38;3.97;;;;;;;4.94;nan;95289.25;4969267;28;20249;-75
2022/04/04 01:15:01;;;;;;;4.03;3.60;;;;;;;5.15;nan;95282.34;4971179;28;20417;-74
2022/04/04 01:17:29;;;;;;;4.32;3.92;;;;;;;5.27;nan;95288.09;4970511;28;20208;-73
2022/04/04 01:19:56;;;;;;;4.53;3.75;;;;;;;5.11;nan;95289.09;4966924;28;20231;-74
2022/04/04 01:22:24;;;;;;;5.53;3.87;;;;;;;5.17;nan;95256.28;4969205;28;20204;-72
2022/04/04 01:24:52;;;;;;;4.53;4.22;;;;;;;5.42;nan;95285.44;4969640;28;20238;-73
2022/04/04 01:27:19;;;;;;;5.07;4.68;;;;;;;5.37;nan;95284.66;4972031;28;20620;-72
2022/04/04 01:29:46;;;;;;;4.68;4.28;;;;;;;5.15;nan;95274.78;4970211;28;20774;-72
2022/04/04 01:32:14;;;;;;;4.73;4.33;;;;;;;4.89;nan;95275.84;4972268;28;20733;-71
2022/04/04 01:34:40;;;;;;;4.03;3.72;;;;;;;4.86;nan;95264.97;4970422;28;20204;-74
2022/04/04 01:37:07;;;;;;;4.93;4.63;;;;;;;4.85;nan;95269.16;4970340;28;20274;-72
2022/04/04 01:39:35;;;;;;;4.93;4.53;;;;;;;4.73;nan;95264.22;4971646;28;20566;-71
2022/04/04 01:42:04;;;;;;;4.50;4.20;;;;;;;5.05;nan;95269.00;4970261;28;20212;-72
2022/04/04 01:44:31;;;;;;;3.95;3.75;;;;;;;4.99;nan;95271.56;4972562;28;20291;-73
2022/04/04 01:46:58;;;;;;;4.35;4.00;;;;;;;5.02;nan;95266.50;4970893;28;20757;-72
2022/04/04 01:49:25;;;;;;;4.63;4.32;;;;;;;4.57;nan;95273.56;4968162;28;20308;-71
2022/04/04 01:51:51;;;;;;;3.70;3.45;;;;;;;4.67;nan;95287.78;4972072;28;20325;-72
2022/04/04 01:54:18;;;;;;;3.90;3.45;;;;;;;4.70;nan;95282.69;4970352;28;20298;-74
2022/04/04 01:56:45;;;;;;;5.00;4.30;;;;;;;4.54;nan;95278.63;4969744;28;20582;-72
2022/04/04 01:59:13;;;;;;;5.10;4.00;;;;;;;4.29;nan;95287.19;4970126;28;20209;-73
2022/04/04 02:01:41;;;;;;;4.73;4.33;;;;;;;4.30;nan;95292.19;4971458;28;20201;-72
2022/04/04 02:04:10;;;;;;;4.22;3.95;;;;;;;4.75;nan;95295.25;4968345;28;20250;-72
2022/04/04 02:06:37;;;;;;;5.32;3.33;;;;;;;4.74;nan;95284.34;4970203;28;20264;-73
2022/04/04 02:09:04;;;;;;;4.38;4.07;;;;;;;4.49;nan;95280.34;4971711;28;22732;-72
2022/04/04 02:11:30;;;;;;;4.38;4.07;;;;;;;4.38;nan;95280.41;4971078;28;20343;-72
2022/04/04 02:13:58;;;;;;;4.15;3.85;;;;;;;4.28;nan;95286.34;4958735;28;20261;-72
2022/04/04 02:16:27;;;;;;;4.45;4.15;;;;;;;4.34;nan;95281.28;4960910;28;20212;-72
2022/04/04 02:18:53;;;;;;;4.38;4.07;;;;;;;4.36;nan;95269.53;4957661;28;20561;-72
2022/04/04 02:21:20;;;;;;;4.70;4.28;;;;;;;4.28;nan;95256.16;4956351;28;20201;-72
2022/04/04 02:23:47;;;;;;;4.57;4.28;;;;;;;4.39;nan;95276.22;4959725;28;20629;-73
2022/04/04 02:26:13;;;;;;;4.25;3.95;;;;;;;4.69;nan;95273.50;4958886;28;20289;-72
2022/04/04 02:28:40;;;;;;;4.70;4.30;;;;;;;4.62;nan;95274.38;4961504;28;20209;-72
2022/04/04 02:31:07;;;;;;;4.53;4.13;;;;;;;4.51;nan;95272.78;4958849;28;20232;-72
2022/04/04 02:33:35;;;;;;;4.43;4.13;;;;;;;4.14;nan;95236.97;4960374;28;20268;-74
2022/04/04 02:36:02;;;;;;;4.90;4.50;;;;;;;4.41;nan;95264.47;4962093;28;20762;-72
2022/04/04 02:38:29;;;;;;;4.10;3.80;;;;;;;4.67;nan;95255.06;4958081;28;20202;-72
2022/04/04 02:40:58;;;;;;;4.25;3.95;;;;;;;4.80;nan;95235.63;4959593;28;20280;-72
2022/04/04 02:43:25;;;;;;;4.43;4.22;;;;;;;4.82;nan;95250.72;4959705;28;20237;-73
2022/04/04 02:45:53;;;;;;;4.68;4.38;;;;;;;4.40;nan;95252.72;4956337;28;21587;-72
2022/04/04 02:48:20;;;;;;;5.07;4.68;;;;;;;4.47;nan;95256.84;4962295;28;20268;-72
2022/04/04 02:50:48;;;;;;;5.53;5.03;;;;;;;4.29;nan;95259.50;4960117;28;20723;-73
2022/04/04 02:53:16;;;;;;;5.88;4.65;;;;;;;4.36;nan;95239.34;4961082;28;21998;-73
2022/04/04 02:58:28;;;;;;;4.50;4.20;;;;;;;4.71;nan;95255.84;4960986;28;20591;-73
2022/04/04 03:00:54;;;;;;;5.38;4.72;;;;;;;4.77;nan;95248.25;4961480;28;20237;-72
2022/04/04 03:03:21;;;;;;;4.93;4.53;;;;;;;4.72;nan;95255.81;4961332;28;21903;-71
2022/04/04 03:05:49;;;;;;;5.80;5.40;;;;;;;4.76;nan;95254.97;4959661;28;20656;-72
2022/04/04 03:08:16;;;;;;;5.28;4.95;;;;;;;5.23;nan;95256.22;4958116;28;20229;-72
2022/04/04 03:10:43;;;;;;;5.10;4.70;;;;;;;4.93;nan;95217.06;4958351;28;20229;-73
2022/04/04 03:13:10;;;;;;;5.28;4.75;;;;;;;4.92;nan;95265.75;4969594;28;20248;-72
2022/04/04 03:15:37;;;;;;;5.40;4.97;;;;;;;4.95;nan;95249.78;4968096;28;21004;-72
2022/04/04 03:18:05;;;;;;;5.60;5.10;;;;;;;4.75;nan;95258.31;4974906;28;20231;-72
2022/04/04 03:20:32;;;;;;;5.35;5.00;;;;;;;4.67;nan;95259.25;4975141;28;20334;-73
2022/04/04 03:23:02;;;;;;;5.55;5.15;;;;;;;4.55;nan;95264.34;4972982;28;20603;-73
2022/04/04 03:25:29;;;;;;;5.40;4.30;;;;;;;4.28;nan;95262.84;4972384;28;20215;-71
2022/04/04 03:27:56;;;;;;;5.07;4.65;;;;;;;4.47;nan;95261.88;4973026;28;20212;-72
2022/04/04 03:30:25;;;;;;;5.55;5.05;;;;;;;4.37;nan;95242.69;4975128;28;20216;-73
2022/04/04 03:32:54;;;;;;;5.40;4.95;;;;;;;4.48;nan;95275.31;4975140;28;20231;-72
2022/04/04 03:35:22;;;;;;;5.40;4.97;;;;;;;4.22;nan;95255.34;4975926;28;20231;-73
2022/04/04 03:37:53;;;;;;;6.88;5.15;;;;;;;4.43;nan;95280.41;4974004;28;20269;-73
2022/04/04 03:40:22;;;;;;;6.03;5.50;;;;;;;4.32;nan;95277.09;4975223;28;20205;-72
2022/04/04 03:42:51;;;;;;;5.60;5.10;;;;;;;4.30;nan;95268.72;4975663;28;20199;-72
2022/04/04 03:45:19;;;;;;;7.22;6.63;;;;;;;4.29;nan;95277.13;4973392;28;20259;-72
2022/04/04 03:47:47;;;;;;;24.15;14.52;;;;;;;4.22;nan;95285.53;4974019;28;20208;-71
2022/04/04 03:50:15;;;;;;;35.07;20.43;;;;;;;4.35;nan;95282.13;4971616;28;20224;-72
2022/04/04 03:52:42;;;;;;;10.38;7.32;;;;;;;4.14;nan;95297.34;4971067;28;20239;-72
2022/04/04 03:55:11;;;;;;;8.77;7.15;;;;;;;4.08;nan;95298.19;4973269;28;20731;-71
2022/04/04 03:57:41;;;;;;;7.78;6.85;;;;;;;4.30;nan;95301.41;4973182;28;20209;-70
2022/04/04 04:00:09;;;;;;;7.55;6.93;;;;;;;4.29;nan;95302.25;4974894;28;20274;-71
2022/04/04 04:02:37;;;;;;;7.60;7.00;;;;;;;4.31;nan;95303.09;4974737;28;20248;-72
2022/04/04 04:05:05;;;;;;;6.25;5.75;;;;;;;4.19;nan;95314.06;4974685;28;20205;-72
2022/04/04 04:07:32;;;;;;;6.68;6.07;;;;;;;4.20;nan;95317.44;4972871;28;20301;-72
2022/04/04 04:09:59;;;;;;;7.40;6.18;;;;;;;4.14;nan;95319.97;4973746;28;20295;-72
2022/04/04 04:12:27;;;;;;;9.23;6.18;;;;;;;4.18;nan;95324.16;4971419;28;20245;-72
2022/04/04 04:14:56;;;;;;;11.30;6.22;;;;;;;3.96;nan;95298.25;4973110;28;20228;-74
2022/04/04 04:17:24;;;;;;;9.63;5.97;;;;;;;4.07;nan;95317.47;4972635;28;20263;-73
2022/04/04 04:22:36;;;;;;;6.75;5.97;;;;;;;4.28;nan;95329.09;4970163;28;20606;-73
2022/04/04 04:25:05;;;;;;;7.57;6.63;;;;;;;4.25;nan;95335.81;4970674;28;20198;-73
2022/04/04 04:27:32;;;;;;;8.23;5.85;;;;;;;4.53;nan;95344.91;4970887;28;20205;-73
2022/04/04 04:30:00;;;;;;;10.27;7.18;;;;;;;4.44;nan;95344.97;4971842;28;20280;-72
2022/04/04 04:32:27;;;;;;;20.98;13.15;;;;;;;4.52;nan;95345.75;4971238;28;20276;-73
2022/04/04 04:34:54;;;;;;;8.20;7.50;;;;;;;4.58;nan;95349.91;4971825;28;20285;-71
2022/04/04 04:37:23;;;;;;;8.32;7.53;;;;;;;4.45;nan;95344.94;4971868;28;20263;-74
2022/04/04 04:39:51;;;;;;;8.65;6.00;;;;;;;4.53;nan;95347.41;4971709;28;20200;-72
2022/04/04 04:42:17;;;;;;;6.57;5.97;;;;;;;4.57;nan;95338.19;4972201;28;20270;-72
2022/04/04 04:44:45;;;;;;;9.90;6.43;;;;;;;4.66;nan;95344.00;4974633;28;20259;-72
2022/04/04 04:47:14;;;;;;;6.97;6.28;;;;;;;4.82;nan;95348.94;4970428;28;20204;-72
2022/04/04 04:49:41;;;;;;;9.77;6.93;;;;;;;4.64;nan;95349.88;4970741;28;20879;-73
2022/04/04 04:52:08;;;;;;;13.98;8.43;;;;;;;4.61;nan;95353.25;4971820;28;20231;-72
2022/04/04 04:54:35;;;;;;;8.73;6.57;;;;;;;4.38;nan;95333.25;4970674;28;20236;-73
2022/04/04 04:57:02;;;;;;;7.70;6.97;;;;;;;4.41;nan;95357.56;4971328;28;20234;-73
2022/04/04 04:59:29;;;;;;;8.35;6.43;;;;;;;4.31;nan;95340.84;4970931;28;20695;-73
2022/04/04 05:01:56;;;;;;;7.07;6.18;;;;;;;4.49;nan;95357.50;4972520;28;20208;-71
2022/04/04 05:04:24;;;;;;;6.43;5.90;;;;;;;4.68;nan;95371.69;4969605;28;20213;-72
2022/04/04 05:06:51;;;;;;;6.55;5.97;;;;;;;4.57;nan;95360.81;4971285;28;20205;-72
2022/04/04 05:09:18;;;;;;;6.32;5.82;;;;;;;4.72;nan;95369.13;4972197;28;20294;-72
2022/04/04 05:11:45;;;;;;;6.47;5.93;;;;;;;5.05;nan;95362.19;4971728;28;20240;-73
2022/04/04 05:14:15;;;;;;;6.90;6.30;;;;;;;5.28;nan;95370.41;4972517;28;20286;-72
2022/04/04 05:16:43;;;;;;;6.10;5.63;;;;;;;5.07;nan;95352.94;4972170;28;20205;-72
2022/04/04 05:19:11;;;;;;;6.65;6.05;;;;;;;5.06;nan;95368.91;4971353;28;20289;-72
2022/04/04 05:21:40;;;;;;;8.80;6.45;;;;;;;5.15;nan;95368.84;4970280;28;20687;-71
2022/04/04 05:24:08;;;;;;;5.85;5.45;;;;;;;5.02;nan;95374.78;4971468;28;22632;-72
2022/04/04 05:26:35;;;;;;;6.00;5.60;;;;;;;4.92;nan;95368.16;4967497;28;20291;-72
2022/04/04 05:29:03;;;;;;;6.15;5.70;;;;;;;4.93;nan;95380.75;4969777;28;20233;-72
2022/04/04 05:31:31;;;;;;;8.90;6.20;;;;;;;5.06;nan;95384.84;4970887;28;20279;-72
2022/04/04 05:33:58;;;;;;;6.72;6.13;;;;;;;5.15;nan;95389.00;4967765;28;20323;-72
2022/04/04 05:36:27;;;;;;;6.13;5.55;;;;;;;4.96;nan;95370.63;4968510;28;20228;-72
2022/04/04 05:38:55;;;;;;;6.00;5.60;;;;;;;4.95;nan;95395.84;4969704;28;20688;-74
2022/04/04 05:41:22;;;;;;;6.70;6.10;;;;;;;5.23;nan;95402.34;4971571;28;20208;-74
2022/04/04 05:43:49;;;;;;;8.43;7.03;;;;;;;5.51;nan;95399.59;4973068;28;20201;-72
2022/04/04 05:46:17;;;;;;;7.20;6.60;;;;;;;5.51;nan;95397.91;4970492;28;20685;-73
2022/04/04 05:48:45;;;;;;;9.52;6.90;;;;;;;5.27;nan;95400.63;4969958;28;20743;-71
2022/04/04 05:51:13;;;;;;;10.05;7.00;;;;;;;5.23;nan;95399.81;4971202;28;20633;-73
2022/04/04 05:53:40;;;;;;;12.50;7.40;;;;;;;5.36;nan;95406.47;4971123;28;21506;-72
2022/04/04 05:56:08;;;;;;;14.35;8.40;;;;;;;5.58;nan;95386.94;4969816;28;20298;-72
2022/04/04 05:58:36;;;;;;;23.77;8.73;;;;;;;5.45;nan;95386.19;4971423;28;20686;-71
2022/04/04 06:01:02;;;;;;;10.05;8.93;;;;;;;5.51;nan;95402.13;4970228;28;20213;-72
2022/04/04 06:03:29;;;;;;;8.32;7.47;;;;;;;5.79;nan;95395.97;4970632;28;20243;-71
2022/04/04 06:05:56;;;;;;;9.02;7.35;;;;;;;5.53;nan;95405.47;4971153;28;20213;-71
2022/04/04 06:08:23;;;;;;;8.60;7.45;;;;;;;5.74;nan;95407.78;4969956;28;20213;-71
2022/04/04 06:10:50;;;;;;;7.68;7.03;;;;;;;6.20;nan;95397.25;4970352;28;20208;-71
2022/04/04 06:13:20;;;;;;;8.65;7.93;;;;;;;6.25;nan;95403.94;4958256;28;20299;-71
2022/04/04 06:15:47;;;;;;;8.70;7.88;;;;;;;7.04;nan;95391.97;4975615;28;20659;-71
2022/04/04 06:18:15;;;;;;;10.57;8.13;;;;;;;7.85;nan;95382.19;4970193;28;20202;-72
2022/04/04 06:20:43;;;;;;;9.13;7.50;;;;;;;8.79;nan;95376.97;4972702;28;20205;-71
2022/04/04 06:23:11;;;;;;;7.75;7.18;;;;;;;8.92;nan;95391.91;4971368;28;20205;-71
2022/04/04 06:25:39;;;;;;;7.13;6.45;;;;;;;9.45;nan;95394.06;4970116;28;20262;-72
2022/04/04 06:28:06;;;;;;;8.38;7.43;;;;;;;10.02;nan;95380.78;4969505;28;20204;-72
2022/04/04 06:30:35;;;;;;;8.15;6.32;;;;;;;10.46;nan;95376.22;4969267;28;20201;-72
2022/04/04 06:33:05;;;;;;;10.00;7.53;;;;;;;10.67;nan;95360.38;4969770;28;20742;-72
2022/04/04 06:35:32;;;;;;;9.27;7.95;;;;;;;10.47;nan;95372.81;4972543;28;20264;-71
2022/04/04 06:38:00;;;;;;;8.13;7.43;;;;;;;10.25;nan;95353.97;4968820;28;20212;-72
2022/04/04 06:40:27;;;;;;;7.80;7.10;;;;;;;10.54;nan;95374.31;4971979;28;20256;-71
2022/04/04 06:42:56;;;;;;;7.28;6.57;;;;;;;10.47;nan;95383.81;4971808;28;20947;-75
2022/04/04 06:45:24;;;;;;;7.05;6.35;;;;;;;9.72;nan;95361.25;4971469;28;21477;-72
2022/04/04 06:47:52;;;;;;;6.63;6.10;;;;;;;10.08;nan;95387.41;4971023;28;20991;-72
2022/04/04 06:50:20;;;;;;;6.22;5.78;;;;;;;10.44;nan;95383.06;4970228;28;20204;-74
2022/04/04 06:52:47;;;;;;;8.77;7.30;;;;;;;10.93;nan;95382.47;4966933;28;21162;-73
2022/04/04 06:55:15;;;;;;;6.60;6.03;;;;;;;10.61;nan;95367.34;4969816;28;20200;-72
2022/04/04 06:57:43;;;;;;;9.63;7.18;;;;;;;10.89;nan;95385.97;4969416;28;21659;-73
2022/04/04 07:00:12;;;;;;;7.55;5.57;;;;;;;-142.91;100.00;56616.03;4969644;28;20205;-73
2022/04/04 07:02:39;;;;;;;6.95;6.20;;;;;;;11.64;nan;95387.03;4970071;28;20292;-73
2022/04/04 07:05:08;;;;;;;7.60;6.68;;;;;;;11.78;nan;95394.28;4973006;28;21112;-72
2022/04/04 07:07:36;;;;;;;6.85;6.10;;;;;;;12.14;nan;95400.66;4967327;28;20201;-75
2022/04/04 07:10:03;;;;;;;7.25;6.55;;;;;;;12.77;nan;95399.28;4971261;28;20216;-72
2022/04/04 07:12:30;;;;;;;7.90;6.88;;;;;;;12.40;nan;95394.66;4965832;28;20241;-74
2022/04/04 07:14:57;;;;;;;7.53;5.63;;;;;;;12.51;nan;95386.66;4962326;28;20747;-72
2022/04/04 07:17:24;;;;;;;8.05;7.20;;;;;;;12.75;nan;95395.13;4961787;28;20271;-72
2022/04/04 07:19:52;;;;;;;6.40;5.80;;;;;;;13.05;nan;95376.13;4961117;28;20215;-73
2022/04/04 07:22:20;;;;;;;8.40;7.00;;;;;;;13.73;nan;95398.13;4962170;28;20259;-72
2022/04/04 07:24:46;;;;;;;11.20;6.32;;;;;;;13.34;nan;95398.00;4962236;28;20260;-72
2022/04/04 07:27:13;;;;;;;5.95;5.55;;;;;;;13.20;nan;95397.69;4959975;28;20229;-71
2022/04/04 07:29:41;;;;;;;6.43;5.90;;;;;;;13.63;nan;95407.03;4963273;28;20209;-72
2022/04/04 07:32:09;;;;;;;7.70;6.93;;;;;;;14.17;nan;95403.97;4961938;28;20204;-72
2022/04/04 07:34:36;;;;;;;8.02;7.30;;;;;;;14.46;nan;95399.38;4962316;28;20239;-71
2022/04/04 07:37:04;;;;;;;11.50;6.15;;;;;;;14.29;nan;95397.50;4961023;28;20287;-71
2022/04/04 07:39:33;;;;;;;6.75;6.07;;;;;;;13.66;nan;95401.00;4961696;28;20205;-72
2022/04/04 07:42:00;;;;;;;10.57;7.53;;;;;;;13.54;nan;95407.44;4961810;28;20209;-72
2022/04/04 07:44:27;;;;;;;7.05;6.45;;;;;;;12.59;nan;95399.97;4962481;28;20206;-73
2022/04/04 07:46:54;;;;;;;8.60;6.70;;;;;;;12.92;nan;95402.97;4962912;28;21941;-73
2022/04/04 07:49:21;;;;;;;8.95;7.38;;;;;;;12.98;nan;95401.91;4962587;28;20201;-73
2022/04/04 07:51:49;;;;;;;7.10;6.43;;;;;;;13.25;nan;95411.94;4960955;28;20276;-72
2022/04/04 07:54:16;;;;;;;7.60;6.90;;;;;;;13.43;nan;95410.41;4961707;28;20257;-74
2022/04/04 07:56:44;;;;;;;10.25;6.90;;;;;;;13.07;nan;95411.78;4957620;28;20268;-72
2022/04/04 07:59:12;;;;;;;12.45;9.65;;;;;;;12.84;nan;95416.03;4962110;28;20213;-75
2022/04/04 08:01:39;;;;;;;10.10;7.50;;;;;;;13.70;nan;95415.31;4958293;28;20218;-74
2022/04/04 08:04:06;;;;;;;15.73;11.50;;;;;;;14.19;nan;95407.28;4962343;28;20311;-73
2022/04/04 08:06:32;;;;;;;7.32;6.63;;;;;;;13.93;nan;95407.53;4965160;28;20700;-72
2022/04/04 08:08:59;;;;;;;7.90;7.20;;;;;;;13.17;nan;95411.41;4964217;28;20269;-73
2022/04/04 08:11:26;;;;;;;7.43;6.60;;;;;;;12.94;nan;95422.44;4964690;28;20225;-73
2022/04/04 08:13:54;;;;;;;7.65;6.65;;;;;;;12.83;nan;95422.00;4983584;28;20723;-74
2022/04/04 08:16:22;;;;;;;7.25;6.60;;;;;;;12.80;nan;95403.44;4985204;28;20291;-71
2022/04/04 08:18:49;;;;;;;5.32;4.90;;;;;;;12.25;nan;95418.97;4985327;28;20197;-73
2022/04/04 08:21:16;;;;;;;5.68;5.28;;;;;;;12.90;nan;95403.03;4985272;28;20829;-73
2022/04/04 08:23:43;;;;;;;5.95;5.55;;;;;;;13.40;nan;95400.31;4983554;28;20216;-73
2022/04/04 08:26:10;;;;;;;9.02;8.38;;;;;;;13.35;nan;95394.56;4984892;28;21017;-72
2022/04/04 08:28:38;;;;;;;26.83;23.83;;;;;;;13.13;nan;95396.22;4983091;28;20205;-73
2022/04/04 08:31:06;;;;;;;7.00;6.30;;;;;;;12.30;nan;95392.50;4984786;28;20335;-72
2022/04/04 08:33:32;;;;;;;5.15;4.85;;;;;;;11.68;nan;95387.78;4985315;28;20287;-71
2022/04/04 08:36:03;;;;;;;5.07;4.78;;;;;;;11.77;nan;95387.50;4982246;28;20630;-73
2022/04/04 08:38:30;;;;;;;5.80;5.30;;;;;;;11.83;nan;95372.88;4983259;28;20201;-72
2022/04/04 08:41:03;;;;;;;7.18;6.35;;;;;;;11.82;nan;95376.31;4982850;28;20205;-74
2022/04/04 08:43:35;;;;;;;6.78;5.70;;;;;;;11.65;nan;95377.69;4982323;28;21110;-74
2022/04/04 08:46:03;;;;;;;8.65;5.25;;;;;;;12.11;nan;95374.47;4984438;28;20201;-73
2022/04/04 08:48:32;;;;;;;5.47;4.97;;;;;;;12.30;nan;95367.84;4981962;28;20204;-73
2022/04/04 08:50:59;;;;;;;5.50;5.10;;;;;;;12.22;nan;95355.38;4983771;28;20213;-74
2022/04/04 08:53:26;;;;;;;6.32;5.72;;;;;;;12.07;nan;95361.00;4983485;28;20232;-73
2022/04/04 08:55:52;;;;;;;5.60;5.20;;;;;;;12.05;nan;95356.84;4984109;28;21759;-74
2022/04/04 08:58:19;;;;;;;6.40;5.80;;;;;;;12.65;nan;95351.25;4985040;28;20397;-74
2022/04/04 09:00:46;;;;;;;5.45;4.90;;;;;;;12.74;nan;95358.59;4984249;28;20590;-74
2022/04/04 09:03:21;;;;;;;5.10;4.78;;;;;;;12.79;nan;95341.41;4984886;28;20231;-74
2022/04/04 09:05:53;;;;;;;5.32;4.93;;;;;;;11.76;nan;95333.22;4983216;28;20205;-72
2022/04/04 09:08:20;;;;;;;5.97;5.35;;;;;;;12.04;nan;95348.38;4984260;28;20215;-72
2022/04/04 09:10:48;;;;;;;7.80;5.65;;;;;;;12.30;nan;95347.47;4984326;28;20215;-74
2022/04/04 09:13:17;;;;;;;5.93;5.43;;;;;;;12.40;nan;95350.50;4984276;28;20244;-73
2022/04/04 09:15:55;;;;;;;5.93;5.38;;;;;;;11.98;nan;95340.94;4986494;28;20318;-73
2022/04/04 09:18:41;;;;;;;6.72;6.13;;;;;;;12.19;nan;95335.09;4986755;28;20200;-74
2022/04/04 09:21:11;;;;;;;5.78;4.95;;;;;;;12.15;nan;95312.31;4982057;28;20224;-72
2022/04/04 09:23:54;;;;;;;4.97;4.65;;;;;;;12.16;nan;95325.00;4982901;28;20211;-73
2022/04/04 09:26:28;;;;;;;5.53;4.97;;;;;;;12.16;nan;95317.38;4984341;28;20208;-73
2022/04/04 09:28:55;;;;;;;4.72;4.25;;;;;;;12.30;nan;95301.59;4982860;28;20300;-74
2022/04/04 09:31:22;;;;;;;5.47;5.07;;;;;;;12.32;nan;95306.63;4982818;28;20208;-72
2022/04/04 09:33:48;;;;;;;10.85;6.25;;;;;;;12.37;nan;95299.66;4985641;28;20240;-71
2022/04/04 09:36:17;;;;;;;11.20;5.18;;;;;;;12.37;nan;95310.69;5001106;28;20224;-72
2022/04/04 09:38:44;;;;;;;5.47;5.18;;;;;;;12.12;nan;95303.09;5008130;28;20205;-71
2022/04/04 09:41:21;;;;;;;5.25;4.85;;;;;;;13.03;nan;95303.91;4998287;28;20252;-72
2022/04/04 09:43:52;;;;;;;4.97;4.57;;;;;;;13.35;nan;95297.56;4988376;28;20197;-73
2022/04/04 09:46:20;;;;;;;5.60;4.78;;;;;;;13.07;nan;95294.41;4989306;28;20208;-73
2022/04/04 09:49:06;;;;;;;5.35;4.95;;;;;;;13.02;nan;95275.91;4988211;28;20244;-74
2022/04/04 09:51:39;;;;;;;10.07;6.13;;;;;;;12.71;nan;95292.41;4988948;28;20201;-74
2022/04/04 09:54:08;;;;;;;6.20;5.60;;;;;;;12.64;nan;95290.13;4988809;28;20233;-75
2022/04/04 09:56:35;;;;;;;6.47;4.95;;;;;;;12.73;nan;95285.53;4991430;28;20212;-71
2022/04/04 09:59:02;;;;;;;6.20;5.70;;;;;;;13.19;nan;95281.19;4992013;28;20284;-71
2022/04/04 10:01:31;;;;;;;5.60;5.20;;;;;;;13.67;nan;95265.56;4991990;28;20292;-73
2022/04/04 10:04:00;;;;;;;5.53;5.10;;;;;;;13.70;nan;95236.53;4991797;28;20252;-72
2022/04/04 10:06:28;;;;;;;9.57;4.93;;;;;;;13.75;nan;95257.59;4992626;28;20252;-73
2022/04/04 10:08:59;;;;;;;5.07;4.68;;;;;;;14.02;nan;95243.63;4991670;28;20657;-74
2022/04/04 10:11:30;;;;;;;4.97;4.57;;;;;;;13.64;nan;95237.59;4991965;28;20275;-74
2022/04/04 10:13:57;;;;;;;4.25;3.78;;;;;;;13.45;nan;95245.22;4991720;28;20730;-72
2022/04/04 10:16:25;;;;;;;6.40;4.70;;;;;;;13.45;nan;95236.72;4991833;28;20201;-72
2022/04/04 10:18:55;;;;;;;7.30;6.13;;;;;;;12.68;nan;95246.63;4991689;28;20204;-72
2022/04/04 10:21:22;;;;;;;5.75;5.35;;;;;;;12.12;nan;95241.97;4991565;28;20295;-73
2022/04/04 10:23:52;;;;;;;4.53;4.22;;;;;;;12.36;nan;95230.03;4991313;28;20243;-73
2022/04/04 10:26:22;;;;;;;4.95;4.50;;;;;;;12.24;nan;95230.47;4991428;28;20664;-74
2022/04/04 10:28:49;;;;;;;7.72;5.47;;;;;;;12.20;nan;95227.19;4991639;28;20201;-71
2022/04/04 10:31:18;;;;;;;9.20;5.78;;;;;;;12.36;nan;95226.63;4991836;28;20201;-72
2022/04/04 10:33:46;;;;;;;5.45;4.68;;;;;;;11.98;nan;95218.69;4991036;28;20279;-72
2022/04/04 10:36:15;;;;;;;5.55;4.85;;;;;;;12.29;nan;95212.47;5001141;28;20200;-72
2022/04/04 10:38:49;;;;;;;6.43;5.93;;;;;;;12.32;nan;95212.34;5011153;28;20196;-73
2022/04/04 10:41:18;;;;;;;6.45;5.85;;;;;;;12.39;nan;95213.75;4999559;28;20218;-73
2022/04/04 10:43:48;;;;;;;5.28;4.88;;;;;;;12.30;nan;95214.94;4991129;28;20208;-73
2022/04/04 10:46:17;;;;;;;5.15;4.75;;;;;;;12.12;nan;95206.28;4991267;28;20205;-72
2022/04/04 10:48:49;;;;;;;5.20;4.03;;;;;;;12.23;nan;95208.41;4991062;28;20572;-73
2022/04/04 10:51:18;;;;;;;6.35;4.22;;;;;;;12.51;nan;95209.03;4991318;28;20201;-72
2022/04/04 10:53:48;;;;;;;14.70;10.20;;;;;;;12.48;nan;95201.50;4990836;28;20240;-74
2022/04/04 10:56:21;;;;;;;5.57;5.07;;;;;;;12.70;nan;95203.22;4991342;28;20303;-72
2022/04/04 10:58:51;;;;;;;4.68;4.25;;;;;;;12.83;nan;95196.75;4990643;28;20771;-73
2022/04/04 11:01:20;;;;;;;6.68;4.55;;;;;;;12.94;nan;95197.97;4990499;28;20201;-74
2022/04/04 11:04:00;;;;;;;5.03;4.63;;;;;;;12.87;nan;95190.59;4990997;28;20259;-72
2022/04/04 11:09:33;;;;;;;4.75;4.35;;;;;;;13.17;nan;95198.75;4990621;28;20207;-71
2022/04/04 11:12:13;;;;;;;5.97;4.50;;;;;;;13.22;nan;95186.66;4990856;28;20287;-72
2022/04/04 11:14:54;;;;;;;3.80;3.50;;;;;;;13.37;nan;95186.00;4991040;28;20659;-72
2022/04/04 11:17:33;;;;;;;4.65;4.25;;;;;;;13.34;nan;95188.69;4990999;28;20263;-73
2022/04/04 11:20:04;;;;;;;4.43;3.78;;;;;;;12.97;nan;95184.25;4991026;28;20603;-72
2022/04/04 11:22:33;;;;;;;4.82;4.35;;;;;;;12.99;nan;95186.75;4990887;28;20197;-73
2022/04/04 11:25:04;;;;;;;4.45;4.15;;;;;;;12.57;nan;95172.28;4990774;28;20747;-73
2022/04/04 11:27:33;;;;;;;5.38;4.43;;;;;;;12.93;nan;95178.44;5010570;28;20223;-72
2022/04/04 11:30:05;;;;;;;4.45;4.05;;;;;;;13.05;nan;95164.38;5009203;28;20208;-73
2022/04/04 11:32:34;;;;;;;4.93;4.53;;;;;;;13.01;nan;95151.78;4990553;28;20256;-73
2022/04/04 11:35:02;;;;;;;4.75;4.43;;;;;;;13.37;nan;95168.13;4990440;28;20236;-71
2022/04/04 11:37:30;;;;;;;4.88;4.00;;;;;;;13.14;nan;95168.22;4990854;28;20638;-74
2022/04/04 11:40:03;;;;;;;4.68;4.22;;;;;;;13.41;nan;95151.78;4994868;28;20204;-72
2022/04/04 11:42:39;;;;;;;5.82;4.60;;;;;;;13.56;nan;95156.25;4994455;28;20197;-72
2022/04/04 11:45:11;;;;;;;4.70;4.30;;;;;;;13.72;nan;95160.66;4994593;28;20240;-72
2022/04/04 11:47:39;;;;;;;6.45;5.95;;;;;;;13.82;nan;95149.16;4994284;28;20687;-74
2022/04/04 11:50:08;;;;;;;4.88;4.00;;;;;;;13.71;nan;95129.19;4994350;28;20193;-74
2022/04/04 11:52:49;;;;;;;4.90;4.50;;;;;;;13.55;nan;95143.53;4994016;28;20221;-73
2022/04/04 11:55:18;;;;;;;4.57;4.13;;;;;;;13.23;nan;95152.56;4996617;28;20250;-72
2022/04/04 11:57:49;;;;;;;5.20;4.57;;;;;;;12.82;nan;95139.81;5013581;28;20236;-72
2022/04/04 12:00:21;;;;;;;4.95;4.45;;;;;;;13.03;nan;95134.69;5010399;28;20197;-72
2022/04/04 12:02:49;;;;;;;3.97;3.67;;;;;;;13.22;nan;95130.50;4994090;28;20676;-73
2022/04/04 12:05:17;;;;;;;3.80;3.58;;;;;;;13.09;nan;95140.38;4994038;28;20196;-73
2022/04/04 12:07:44;;;;;;;4.43;3.55;;;;;;;13.15;nan;95118.84;4993763;28;20193;-73